KLNS

Lancaster Airport

Lancaster, Pennsylvania, USA
METAR KLNS 172118Z 15017KT 2SM -SN OVC028 02/M04 A3020 RMK AO2 SNB01 P0000 T00171039
Observed Flight Rules
Feb-17 @ 21:18 UTC (17 minutes ago) Instrument Flight Rules
Wind Visibility Clouds Conditions
150° at 17 knots 2 miles
  • Overcast at 2,800' AGL
  • Light Snow
Temperatures Readings Precipitation
Current 2°C / 36°F
Dewpoint -4°C / 25°F
Humidity 65%
Altimeter 30.2" Hg
Pressure 1023 hPa
Elevation 125
Current Rain 0.005
METAR KLNS 172118Z 15017KT 2SM -SN OVC028 02/M04 A3020 RMK AO2 SNB01 P0000 T00171039
Observed Flight Rules
Feb-17 @ 21:18 UTC
(17 minutes ago)
IFR
Wind Visibility
150° at 17 knots 2 miles
Clouds
  • Overcast at 2,800' AGL
Conditions
  • Light Snow
Temperature Dewpoint
2°C / 36°F -4°C / 25°F
Humidity Altimeter Pressure
65% 30.2" Hg 1023 hPa
Current Rain
0.005